Time;durP1;ratioP1;P1;durP2;ratioP2;P2;SDS_P1;SDS_P2;PMS_P1;PMS_P2;Temp;Humidity;BMP_temperature;BMP_pressure;BME280_temperature;BME280_humidity;BME280_pressure;Samples;Min_cycle;Max_cycle;Signal;HPM_P1;HPM_P2
2022/02/14 00:00:17;;;;;;;;;;;;;;;;;;4986307;28;19926;-67
2022/02/14 00:02:44;;;;;;;;;;;;;;;;;;4989994;28;19933;-67
2022/02/14 00:05:11;;;;;;;;;;;;;;;;;;4989749;28;19929;-67
2022/02/14 00:07:38;;;;;;;;;;;;;;;;;;4988561;28;19931;-67
2022/02/14 00:10:05;;;;;;;;;;;;;;;;;;4988175;28;19925;-67
2022/02/14 00:12:34;;;;;;;;;;;;;;;;;;4992384;28;19932;-67
2022/02/14 00:15:01;;;;;;;;;;;;;;;;;;4987631;28;20360;-67
2022/02/14 00:17:28;;;;;;;;;;;;;;;;;;4990407;28;19993;-68
2022/02/14 00:19:55;;;;;;;;;;;;;;;;;;4987049;28;19930;-68
2022/02/14 00:22:22;;;;;;;;;;;;;;;;;;4988775;28;20017;-67
2022/02/14 00:24:49;;;;;;;;;;;;;;;;;;4987283;28;19938;-68
2022/02/14 00:27:16;;;;;;;;;;;;;;;;;;4984492;28;19933;-67
2022/02/14 00:29:43;;;;;;;;;;;;;;;;;;4991350;28;19926;-67
2022/02/14 00:32:10;;;;;;;;;;;;;;;;;;4985744;28;20420;-68
2022/02/14 00:34:37;;;;;;;;;;;;;;;;;;4988577;28;20636;-66
2022/02/14 00:37:04;;;;;;;;;;;;;;;;;;4985476;28;19926;-67
2022/02/14 00:39:30;;;;;;;;;;;;;;;;;;4990236;28;20381;-67
2022/02/14 00:41:57;;;;;;;;;;;;;;;;;;4989151;28;19926;-66
2022/02/14 00:44:24;;;;;;;;;;;;;;;;;;4985952;28;20496;-69
2022/02/14 00:46:51;;;;;;;;;;;;;;;;;;4984508;28;19929;-68
2022/02/14 00:49:18;;;;;;;;;;;;;;;;;;4989793;28;19926;-67
2022/02/14 00:51:45;;;;;;;;;;;;;;;;;;4990406;28;19933;-67
2022/02/14 00:54:12;;;;;;;;;;;;;;;;;;4986686;28;20049;-67
2022/02/14 00:56:39;;;;;;;;;;;;;;;;;;4985522;28;19926;-67
2022/02/14 00:59:06;;;;;;;;;;;;;;;;;;4985221;28;20317;-67
2022/02/14 01:01:33;;;;;;;;;;;;;;;;;;4990835;28;19926;-66
2022/02/14 01:04:00;;;;;;;;;;;;;;;;;;4989834;28;19934;-66
2022/02/14 01:06:27;;;;;;;;;;;;;;;;;;4978964;28;19929;-67
2022/02/14 01:08:54;;;;;;;;;;;;;;;;;;4983806;28;19926;-66
2022/02/14 01:11:21;;;;;;;;;;;;;;;;;;4983743;28;19932;-66
2022/02/14 01:13:48;;;;;;;;;;;;;;;;;;4984480;28;20008;-67
2022/02/14 01:16:15;;;;;;;;;;;;;;;;;;4982899;28;19926;-67
2022/02/14 01:18:42;;;;;;;;;;;;;;;;;;4987862;28;20323;-67
2022/02/14 01:21:09;;;;;;;;;;;;;;;;;;4987477;28;19949;-67
2022/02/14 01:23:36;;;;;;;;;;;;;;;;;;4987402;28;19929;-65
2022/02/14 01:26:03;;;;;;;;;;;;;;;;;;4986878;28;19934;-67
2022/02/14 01:28:30;;;;;;;;;;;;;;;;;;4989372;28;20407;-68
2022/02/14 01:30:57;;;;;;;;;;;;;;;;;;4985304;28;20389;-67
2022/02/14 01:33:24;;;;;;;;;;;;;;;;;;4987007;28;19949;-67
2022/02/14 01:35:51;;;;;;;;;;;;;;;;;;4987638;28;19926;-67
2022/02/14 01:38:18;;;;;;;;;;;;;;;;;;4987075;28;19933;-67
2022/02/14 01:40:45;;;;;;;;;;;;;;;;;;4991395;28;20308;-67
2022/02/14 01:43:15;;;;;;;;;;;;;;;;;;4983054;28;19930;-67
2022/02/14 01:45:42;;;;;;;;;;;;;;;;;;4983085;28;19966;-68
2022/02/14 01:48:09;;;;;;;;;;;;;;;;;;4988981;28;19926;-68
2022/02/14 01:50:36;;;;;;;;;;;;;;;;;;4992099;28;19932;-67
2022/02/14 01:53:03;;;;;;;;;;;;;;;;;;4983100;28;20377;-67
2022/02/14 01:55:30;;;;;;;;;;;;;;;;;;4989077;28;20419;-68
2022/02/14 01:57:57;;;;;;;;;;;;;;;;;;4988199;28;20562;-67
2022/02/14 02:00:25;;;;;;;;;;;;;;;;;;4988649;28;20395;-67
2022/02/14 02:02:55;;;;;;;;;;;;;;;;;;4989600;28;19930;-67
2022/02/14 02:05:21;;;;;;;;;;;;;;;;;;4989711;28;19936;-68
2022/02/14 02:07:48;;;;;;;;;;;;;;;;;;4985306;28;19926;-67
2022/02/14 02:10:16;;;;;;;;;;;;;;;;;;4986232;28;19930;-67
2022/02/14 02:12:43;;;;;;;;;;;;;;;;;;4988591;28;20269;-67
2022/02/14 02:15:10;;;;;;;;;;;;;;;;;;4982294;28;20381;-67
2022/02/14 02:17:38;;;;;;;;;;;;;;;;;;4987969;28;19932;-66
2022/02/14 02:20:05;;;;;;;;;;;;;;;;;;4984486;28;19926;-67
2022/02/14 02:22:32;;;;;;;;;;;;;;;;;;4988550;28;19929;-66
2022/02/14 02:24:58;;;;;;;;;;;;;;;;;;4986076;28;19933;-66
2022/02/14 02:27:26;;;;;;;;;;;;;;;;;;4982721;28;19934;-67
2022/02/14 02:29:53;;;;;;;;;;;;;;;;;;4983354;28;19926;-67
2022/02/14 02:32:20;;;;;;;;;;;;;;;;;;4986805;28;20570;-66
2022/02/14 02:34:47;;;;;;;;;;;;;;;;;;4988240;28;20409;-67
2022/02/14 02:37:14;;;;;;;;;;;;;;;;;;4985943;28;19932;-67
2022/02/14 02:39:41;;;;;;;;;;;;;;;;;;4987655;28;20449;-67
2022/02/14 02:42:08;;;;;;;;;;;;;;;;;;4988526;28;19926;-67
2022/02/14 02:44:35;;;;;;;;;;;;;;;;;;4987502;28;19932;-68
2022/02/14 02:47:02;;;;;;;;;;;;;;;;;;4982045;28;19937;-67
2022/02/14 02:49:29;;;;;;;;;;;;;;;;;;4987502;28;19934;-66
2022/02/14 02:51:56;;;;;;;;;;;;;;;;;;4989905;28;19934;-67
2022/02/14 02:54:23;;;;;;;;;;;;;;;;;;4986944;28;19930;-68
2022/02/14 02:56:50;;;;;;;;;;;;;;;;;;4986277;28;19933;-66
2022/02/14 02:59:17;;;;;;;;;;;;;;;;;;4991956;28;19934;-67
2022/02/14 03:01:44;;;;;;;;;;;;;;;;;;4988314;28;19945;-67
2022/02/14 03:04:11;;;;;;;;;;;;;;;;;;4990864;28;19934;-66
2022/02/14 03:06:38;;;;;;;;;;;;;;;;;;4988004;28;19926;-66
2022/02/14 03:09:05;;;;;;;;;;;;;;;;;;4993059;28;19953;-66
2022/02/14 03:11:32;;;;;;;;;;;;;;;;;;4992051;28;19930;-66
2022/02/14 03:13:59;;;;;;;;;;;;;;;;;;4988779;28;19932;-66
2022/02/14 03:16:26;;;;;;;;;;;;;;;;;;4991448;28;19950;-66
2022/02/14 03:18:53;;;;;;;;;;;;;;;;;;4987184;28;19930;-67
2022/02/14 03:21:20;;;;;;;;;;;;;;;;;;4988623;28;20361;-67
2022/02/14 03:23:47;;;;;;;;;;;;;;;;;;4989733;28;19929;-67
2022/02/14 03:26:15;;;;;;;;;;;;;;;;;;4985913;28;19925;-67
2022/02/14 03:28:42;;;;;;;;;;;;;;;;;;4992962;28;20282;-67
2022/02/14 03:31:09;;;;;;;;;;;;;;;;;;4988189;28;19926;-68
2022/02/14 03:33:35;;;;;;;;;;;;;;;;;;4986922;28;19949;-67
2022/02/14 03:36:02;;;;;;;;;;;;;;;;;;4986393;28;20443;-68
2022/02/14 03:38:29;;;;;;;;;;;;;;;;;;4992127;28;19930;-66
2022/02/14 03:40:56;;;;;;;;;;;;;;;;;;4991934;28;19965;-68
2022/02/14 03:43:23;;;;;;;;;;;;;;;;;;4991158;28;20290;-67
2022/02/14 03:45:50;;;;;;;;;;;;;;;;;;4987734;28;19930;-67
2022/02/14 03:48:17;;;;;;;;;;;;;;;;;;4991660;28;19929;-66
2022/02/14 03:50:44;;;;;;;;;;;;;;;;;;4988218;28;19925;-66
2022/02/14 03:53:11;;;;;;;;;;;;;;;;;;4990360;28;19930;-66
2022/02/14 03:55:38;;;;;;;;;;;;;;;;;;4991461;28;19926;-68
2022/02/14 03:58:05;;;;;;;;;;;;;;;;;;4992076;28;19926;-68
2022/02/14 04:00:32;;;;;;;;;;;;;;;;;;4987007;28;19933;-67
2022/02/14 04:02:59;;;;;;;;;;;;;;;;;;4987298;28;19930;-67
2022/02/14 04:05:26;;;;;;;;;;;;;;;;;;4979633;28;19933;-68
2022/02/14 04:07:57;;;;;;;;;;;;;;;;;;4990123;28;20073;-69
2022/02/14 04:10:24;;;;;;;;;;;;;;;;;;4991700;28;19926;-66
2022/02/14 04:12:51;;;;;;;;;;;;;;;;;;4988580;28;19996;-68
2022/02/14 04:15:18;;;;;;;;;;;;;;;;;;4982367;28;20020;-67
2022/02/14 04:17:45;;;;;;;;;;;;;;;;;;4985368;28;19948;-67
2022/02/14 04:20:12;;;;;;;;;;;;;;;;;;4984918;28;19930;-67
2022/02/14 04:22:40;;;;;;;;;;;;;;;;;;4983372;28;19941;-67
2022/02/14 04:25:07;;;;;;;;;;;;;;;;;;4984421;28;20064;-66
2022/02/14 04:27:34;;;;;;;;;;;;;;;;;;4988900;28;19926;-68
2022/02/14 04:30:01;;;;;;;;;;;;;;;;;;4984152;28;19948;-66
2022/02/14 04:32:28;;;;;;;;;;;;;;;;;;4987643;28;19926;-67
2022/02/14 04:34:55;;;;;;;;;;;;;;;;;;4986498;28;19930;-68
2022/02/14 04:37:22;;;;;;;;;;;;;;;;;;4990390;28;19926;-66
2022/02/14 04:39:49;;;;;;;;;;;;;;;;;;4988022;28;19936;-67
2022/02/14 04:42:16;;;;;;;;;;;;;;;;;;4989817;28;19929;-67
2022/02/14 04:44:42;;;;;;;;;;;;;;;;;;4987516;28;20024;-67
2022/02/14 04:47:09;;;;;;;;;;;;;;;;;;4987860;28;19926;-66
2022/02/14 04:49:36;;;;;;;;;;;;;;;;;;4987175;28;19930;-67
2022/02/14 04:52:03;;;;;;;;;;;;;;;;;;4992330;28;19964;-66
2022/02/14 04:54:30;;;;;;;;;;;;;;;;;;4984284;28;20017;-68
2022/02/14 04:56:57;;;;;;;;;;;;;;;;;;4982135;28;20393;-68
2022/02/14 04:59:24;;;;;;;;;;;;;;;;;;4992121;28;19926;-68
2022/02/14 05:01:51;;;;;;;;;;;;;;;;;;4990243;28;19926;-66
2022/02/14 05:04:18;;;;;;;;;;;;;;;;;;4987952;28;19932;-67
2022/02/14 05:06:45;;;;;;;;;;;;;;;;;;4990349;28;19926;-67
2022/02/14 05:09:12;;;;;;;;;;;;;;;;;;4990609;28;19926;-67
2022/02/14 05:11:39;;;;;;;;;;;;;;;;;;4989631;28;19961;-66
2022/02/14 05:14:06;;;;;;;;;;;;;;;;;;4987326;28;19932;-68
2022/02/14 05:16:33;;;;;;;;;;;;;;;;;;4984518;28;19940;-67
2022/02/14 05:19:00;;;;;;;;;;;;;;;;;;4982294;28;20626;-68
2022/02/14 05:21:27;;;;;;;;;;;;;;;;;;4985908;28;19925;-66
2022/02/14 05:23:56;;;;;;;;;;;;;;;;;;4988897;28;20278;-67
2022/02/14 05:26:23;;;;;;;;;;;;;;;;;;4988129;28;20670;-67
2022/02/14 05:28:54;;;;;;;;;;;;;;;;;;4989224;28;20305;-67
2022/02/14 05:31:21;;;;;;;;;;;;;;;;;;4988514;28;19932;-66
2022/02/14 05:33:48;;;;;;;;;;;;;;;;;;4984840;28;19977;-67
2022/02/14 05:36:15;;;;;;;;;;;;;;;;;;4990102;28;19926;-66
2022/02/14 05:38:42;;;;;;;;;;;;;;;;;;4982394;28;19926;-65
2022/02/14 05:41:09;;;;;;;;;;;;;;;;;;4989200;28;19933;-67
2022/02/14 05:43:36;;;;;;;;;;;;;;;;;;4986648;28;19941;-67
2022/02/14 05:46:03;;;;;;;;;;;;;;;;;;4990408;28;19937;-69
2022/02/14 05:48:30;;;;;;;;;;;;;;;;;;4987840;28;19933;-67
2022/02/14 05:50:57;;;;;;;;;;;;;;;;;;4989442;28;19933;-68
2022/02/14 05:53:24;;;;;;;;;;;;;;;;;;4989626;28;19937;-68
2022/02/14 05:55:51;;;;;;;;;;;;;;;;;;4989453;28;19926;-67
2022/02/14 05:58:18;;;;;;;;;;;;;;;;;;4989643;28;19925;-68
2022/02/14 06:00:45;;;;;;;;;;;;;;;;;;4987599;28;19949;-68
2022/02/14 06:03:12;;;;;;;;;;;;;;;;;;4984751;28;19926;-67
2022/02/14 06:05:39;;;;;;;;;;;;;;;;;;4989306;28;19926;-66
2022/02/14 06:08:06;;;;;;;;;;;;;;;;;;4986473;28;19926;-67
2022/02/14 06:10:33;;;;;;;;;;;;;;;;;;4980109;28;19930;-68
2022/02/14 06:13:00;;;;;;;;;;;;;;;;;;4991195;28;19932;-66
2022/02/14 06:15:27;;;;;;;;;;;;;;;;;;4983162;28;19932;-67
2022/02/14 06:17:54;;;;;;;;;;;;;;;;;;4987727;28;19925;-67
2022/02/14 06:20:21;;;;;;;;;;;;;;;;;;4985123;28;19938;-68
2022/02/14 06:22:48;;;;;;;;;;;;;;;;;;4985139;28;19925;-68
2022/02/14 06:25:14;;;;;;;;;;;;;;;;;;4985538;28;20070;-66
2022/02/14 06:27:41;;;;;;;;;;;;;;;;;;4987363;28;19936;-67
2022/02/14 06:30:08;;;;;;;;;;;;;;;;;;4988360;28;19926;-67
2022/02/14 06:32:35;;;;;;;;;;;;;;;;;;4987092;28;19929;-67
2022/02/14 06:35:04;;;;;;;;;;;;;;;;;;4984011;28;19929;-66
2022/02/14 06:37:31;;;;;;;;;;;;;;;;;;4987801;28;20017;-65
2022/02/14 06:39:57;;;;;;;;;;;;;;;;;;4984494;28;20006;-65
2022/02/14 06:42:24;;;;;;;;;;;;;;;;;;4990706;28;19932;-65
2022/02/14 06:44:51;;;;;;;;;;;;;;;;;;4987944;28;20286;-66
2022/02/14 06:47:18;;;;;;;;;;;;;;;;;;4986959;28;19933;-65
2022/02/14 06:49:45;;;;;;;;;;;;;;;;;;4987043;28;19930;-66
2022/02/14 06:52:12;;;;;;;;;;;;;;;;;;4991366;28;19926;-66
2022/02/14 06:54:39;;;;;;;;;;;;;;;;;;4986399;28;19934;-67
2022/02/14 06:57:06;;;;;;;;;;;;;;;;;;4983087;28;19925;-67
2022/02/14 06:59:33;;;;;;;;;;;;;;;;;;4985780;28;20436;-66
2022/02/14 07:02:00;;;;;;;;;;;;;;;;;;4986755;28;19926;-67
2022/02/14 07:04:27;;;;;;;;;;;;;;;;;;4987272;28;19980;-67
2022/02/14 07:06:54;;;;;;;;;;;;;;;;;;4990247;28;19965;-67
2022/02/14 07:09:21;;;;;;;;;;;;;;;;;;4989166;28;19933;-67
2022/02/14 07:11:48;;;;;;;;;;;;;;;;;;4983466;28;19926;-67
2022/02/14 07:14:16;;;;;;;;;;;;;;;;;;4985958;28;19933;-67
2022/02/14 07:16:43;;;;;;;;;;;;;;;;;;4990077;28;19938;-67
2022/02/14 07:19:10;;;;;;;;;;;;;;;;;;4968259;28;20645;-67
2022/02/14 07:21:37;;;;;;;;;;;;;;;;;;4974824;28;20020;-67
2022/02/14 07:24:04;;;;;;;;;;;;;;;;;;4976413;28;19930;-67
2022/02/14 07:26:31;;;;;;;;;;;;;;;;;;4983677;28;19932;-67
2022/02/14 07:28:57;;;;;;;;;;;;;;;;;;4981564;28;20013;-68
2022/02/14 07:31:24;;;;;;;;;;;;;;;;;;4977058;28;20290;-67
2022/02/14 07:33:51;;;;;;;;;;;;;;;;;;4988946;28;20010;-68
2022/02/14 07:36:19;;;;;;;;;;;;;;;;;;4976782;28;19930;-67
2022/02/14 07:38:46;;;;;;;;;;;;;;;;;;4987072;28;20023;-67
2022/02/14 07:41:13;;;;;;;;;;;;;;;;;;4985499;28;19933;-67
2022/02/14 07:43:40;;;;;;;;;;;;;;;;;;4977538;28;19948;-67
2022/02/14 07:46:07;;;;;;;;;;;;;;;;;;4981748;28;19941;-67
2022/02/14 07:48:34;;;;;;;;;;;;;;;;;;4982918;28;20302;-67
2022/02/14 07:51:01;;;;;;;;;;;;;;;;;;4986367;28;19929;-66
2022/02/14 07:53:28;;;;;;;;;;;;;;;;;;4980274;28;19933;-67
2022/02/14 07:55:55;;;;;;;;;;;;;;;;;;4979467;28;19926;-66
2022/02/14 07:58:22;;;;;;;;;;;;;;;;;;4989594;28;19929;-66
2022/02/14 08:00:49;;;;;;;;;;;;;;;;;;4985151;28;20373;-66
2022/02/14 08:03:18;;;;;;;;;;;;;;;;;;4988089;28;20309;-67
2022/02/14 08:05:45;;;;;;;;;;;;;;;;;;4976777;28;19933;-66
2022/02/14 08:08:12;;;;;;;;;;;;;;;;;;5035973;23;20334;-66
2022/02/14 08:10:39;;;;;;;;;;;;;;;;;;5023073;28;19929;-66
2022/02/14 08:13:05;;;;;;;;;;;;;;;;;;5024573;28;19925;-66
2022/02/14 08:15:32;;;;;;;;;;;;;;;;;;5017828;28;19951;-66
2022/02/14 08:18:04;;;;;;;;;;;;;;;;;;5022275;28;19932;-66
2022/02/14 08:20:31;;;;;;;;;;;;;;;;;;5023310;28;19926;-66
2022/02/14 08:22:58;;;;;;;;;;;;;;;;;;5004683;28;19934;-66
2022/02/14 08:25:25;;;;;;;;;;;;;;;;;;5018000;28;19925;-66
2022/02/14 08:27:52;;;;;;;;;;;;;;;;;;5026040;28;20399;-66
2022/02/14 08:30:19;;;;;;;;;;;;;;;;;;5002018;28;19940;-67
2022/02/14 08:32:46;;;;;;;;;;;;;;;;;;4992607;28;19945;-67
2022/02/14 08:35:16;;;;;;;;;;;;;;;;;;5008467;28;19929;-66
2022/02/14 08:37:43;;;;;;;;;;;;;;;;;;4997075;28;19972;-66
2022/02/14 08:40:10;;;;;;;;;;;;;;;;;;5003874;28;19929;-67
2022/02/14 08:42:37;;;;;;;;;;;;;;;;;;4996976;28;20300;-66
2022/02/14 08:45:04;;;;;;;;;;;;;;;;;;5000756;28;20296;-67
2022/02/14 08:47:31;;;;;;;;;;;;;;;;;;4999229;28;20412;-67
2022/02/14 08:49:59;;;;;;;;;;;;;;;;;;5001537;28;20392;-67
2022/02/14 08:52:27;;;;;;;;;;;;;;;;;;4998791;28;20830;-66
2022/02/14 08:54:54;;;;;;;;;;;;;;;;;;5001871;28;19932;-67
2022/02/14 08:57:21;;;;;;;;;;;;;;;;;;4998625;28;20389;-66
2022/02/14 08:59:48;;;;;;;;;;;;;;;;;;4997359;28;19926;-66
2022/02/14 09:02:15;;;;;;;;;;;;;;;;;;4998630;28;19956;-66
2022/02/14 09:04:42;;;;;;;;;;;;;;;;;;5000699;28;19929;-66
2022/02/14 09:07:09;;;;;;;;;;;;;;;;;;5001055;28;19925;-65
2022/02/14 09:09:36;;;;;;;;;;;;;;;;;;5002148;28;19936;-66
2022/02/14 09:12:03;;;;;;;;;;;;;;;;;;5003936;28;19930;-66
2022/02/14 09:14:30;;;;;;;;;;;;;;;;;;5002493;28;19926;-66
2022/02/14 09:16:57;;;;;;;;;;;;;;;;;;4998120;28;20384;-66
2022/02/14 09:19:25;;;;;;;;;;;;;;;;;;4997430;28;20348;-65
2022/02/14 09:21:52;;;;;;;;;;;;;;;;;;5003568;28;19967;-66
2022/02/14 09:24:19;;;;;;;;;;;;;;;;;;4998167;28;19930;-66
2022/02/14 09:26:46;;;;;;;;;;;;;;;;;;5002594;28;19931;-66
2022/02/14 09:29:13;;;;;;;;;;;;;;;;;;4999312;28;19935;-66
2022/02/14 09:31:40;;;;;;;;;;;;;;;;;;4992375;28;20316;-65
2022/02/14 09:34:06;;;;;;;;;;;;;;;;;;5002777;28;19933;-66
2022/02/14 09:36:33;;;;;;;;;;;;;;;;;;4991476;28;19926;-66
2022/02/14 09:39:00;;;;;;;;;;;;;;;;;;5001994;28;20301;-65
2022/02/14 09:41:27;;;;;;;;;;;;;;;;;;5003899;28;19941;-66
2022/02/14 09:43:55;;;;;;;;;;;;;;;;;;4999851;28;19926;-66
2022/02/14 09:46:22;;;;;;;;;;;;;;;;;;5006110;28;20120;-65
2022/02/14 09:48:49;;;;;;;;;;;;;;;;;;5005441;28;20288;-66
2022/02/14 09:51:17;;;;;;;;;;;;;;;;;;5003385;28;19950;-66
2022/02/14 09:53:44;;;;;;;;;;;;;;;;;;4991073;28;19995;-66
2022/02/14 09:56:11;;;;;;;;;;;;;;;;;;5004709;28;19934;-66
2022/02/14 09:58:38;;;;;;;;;;;;;;;;;;5000665;28;20369;-66
2022/02/14 10:01:04;;;;;;;;;;;;;;;;;;5004408;28;19979;-66
2022/02/14 10:03:33;;;;;;;;;;;;;;;;;;5004320;28;19932;-66
2022/02/14 10:06:00;;;;;;;;;;;;;;;;;;5010134;28;20040;-66
2022/02/14 10:08:27;;;;;;;;;;;;;;;;;;5005680;28;19929;-66
2022/02/14 10:10:54;;;;;;;;;;;;;;;;;;5002325;28;19925;-65
2022/02/14 10:13:21;;;;;;;;;;;;;;;;;;5007523;28;19933;-65
2022/02/14 10:15:48;;;;;;;;;;;;;;;;;;5008757;28;19948;-65
2022/02/14 10:18:15;;;;;;;;;;;;;;;;;;5006156;28;19929;-65
2022/02/14 10:20:42;;;;;;;;;;;;;;;;;;5008900;28;19930;-65
2022/02/14 10:23:09;;;;;;;;;;;;;;;;;;5011481;28;19926;-65
2022/02/14 10:25:36;;;;;;;;;;;;;;;;;;5006034;28;19929;-65
2022/02/14 10:28:03;;;;;;;;;;;;;;;;;;5001091;28;19932;-66
2022/02/14 10:30:30;;;;;;;;;;;;;;;;;;5003529;28;20509;-66
2022/02/14 10:32:57;;;;;;;;;;;;;;;;;;4997943;28;19933;-66
2022/02/14 10:35:24;;;;;;;;;;;;;;;;;;5008743;28;19934;-66
2022/02/14 10:37:53;;;;;;;;;;;;;;;;;;5001839;28;19929;-66
2022/02/14 10:40:20;;;;;;;;;;;;;;;;;;4994625;28;20012;-66
2022/02/14 10:42:47;;;;;;;;;;;;;;;;;;5003101;28;19925;-68
2022/02/14 10:45:15;;;;;;;;;;;;;;;;;;4999877;28;19929;-69
2022/02/14 10:47:42;;;;;;;;;;;;;;;;;;5003673;28;21746;-69
2022/02/14 10:50:09;;;;;;;;;;;;;;;;;;5004004;28;20000;-67
2022/02/14 10:52:36;;;;;;;;;;;;;;;;;;5001331;28;19929;-70
2022/02/14 10:55:04;;;;;;;;;;;;;;;;;;5001527;28;19941;-68
2022/02/14 10:57:31;;;;;;;;;;;;;;;;;;5004616;28;20278;-67
2022/02/14 10:59:58;;;;;;;;;;;;;;;;;;5002988;28;19925;-68
2022/02/14 11:02:25;;;;;;;;;;;;;;;;;;5004385;28;19925;-68
2022/02/14 11:04:52;;;;;;;;;;;;;;;;;;5002617;28;20300;-67
2022/02/14 11:07:19;;;;;;;;;;;;;;;;;;5001522;28;19932;-67
2022/02/14 11:09:46;;;;;;;;;;;;;;;;;;4994675;28;19933;-68
2022/02/14 11:12:15;;;;;;;;;;;;;;;;;;4997307;28;20227;-68
2022/02/14 11:14:44;;;;;;;;;;;;;;;;;;4943462;28;19926;-67
2022/02/14 11:17:11;;;;;;;;;;;;;;;;;;4980361;28;20032;-67
2022/02/14 11:19:38;;;;;;;;;;;;;;;;;;4989747;28;19926;-69
2022/02/14 11:22:05;;;;;;;;;;;;;;;;;;4978762;28;19937;-67
2022/02/14 11:24:32;;;;;;;;;;;;;;;;;;4981088;28;20804;-68
2022/02/14 11:26:59;;;;;;;;;;;;;;;;;;4990140;28;20389;-68
2022/02/14 11:29:26;;;;;;;;;;;;;;;;;;4984916;28;20672;-69
2022/02/14 11:31:53;;;;;;;;;;;;;;;;;;4980143;28;19925;-67
2022/02/14 11:34:20;;;;;;;;;;;;;;;;;;4975301;28;19926;-67
2022/02/14 11:36:47;;;;;;;;;;;;;;;;;;4981166;28;20517;-67
2022/02/14 11:39:16;;;;;;;;;;;;;;;;;;4985287;28;19940;-67
2022/02/14 11:41:43;;;;;;;;;;;;;;;;;;4981317;28;19980;-68
2022/02/14 11:44:10;;;;;;;;;;;;;;;;;;4981918;28;19949;-68
2022/02/14 11:46:40;;;;;;;;;;;;;;;;;;4983126;28;19933;-68
2022/02/14 11:49:07;;;;;;;;;;;;;;;;;;4979165;28;20337;-67
2022/02/14 11:51:34;;;;;;;;;;;;;;;;;;4977558;28;19980;-67
2022/02/14 11:54:01;;;;;;;;;;;;;;;;;;4980693;28;19933;-67
2022/02/14 11:56:28;;;;;;;;;;;;;;;;;;4984151;28;19948;-68
2022/02/14 11:58:55;;;;;;;;;;;;;;;;;;4977890;28;19930;-68
2022/02/14 12:01:22;;;;;;;;;;;;;;;;;;4978721;28;20397;-67
2022/02/14 12:03:49;;;;;;;;;;;;;;;;;;4978464;28;20505;-68
2022/02/14 12:06:16;;;;;;;;;;;;;;;;;;4983571;28;20372;-68
2022/02/14 12:08:42;;;;;;;;;;;;;;;;;;4983751;28;19953;-69
2022/02/14 12:11:09;;;;;;;;;;;;;;;;;;4977413;28;19930;-68
2022/02/14 12:13:36;;;;;;;;;;;;;;;;;;4985616;28;19930;-70
2022/02/14 12:21:34;;;;;;;;;;;;;;;;;;4985528;28;20030;-69
2022/02/14 12:24:01;;;;;;;;;;;;;;;;;;4985351;28;19960;-68
2022/02/14 12:26:28;;;;;;;;;;;;;;;;;;4991687;28;20385;-68
2022/02/14 12:31:40;;;;;;;;;;;;;;;;;;4984786;28;20029;-67
2022/02/14 12:34:07;;;;;;;;;;;;;;;;;;4986663;28;19932;-68
2022/02/14 12:36:34;;;;;;;;;;;;;;;;;;4990152;28;19926;-68
2022/02/14 12:39:00;;;;;;;;;;;;;;;;;;4990377;28;19926;-67
2022/02/14 12:41:27;;;;;;;;;;;;;;;;;;4987488;28;19926;-68
2022/02/14 12:43:54;;;;;;;;;;;;;;;;;;4991162;28;20535;-68
2022/02/14 12:46:22;;;;;;;;;;;;;;;;;;4995728;28;19926;-69
2022/02/14 12:48:49;;;;;;;;;;;;;;;;;;5003253;28;19976;-69
2022/02/14 12:51:15;;;;;;;;;;;;;;;;;;4991370;28;19981;-70
2022/02/14 12:53:43;;;;;;;;;;;;;;;;;;4997935;28;19932;-68
2022/02/14 12:56:10;;;;;;;;;;;;;;;;;;4981095;28;19930;-67
2022/02/14 12:58:37;;;;;;;;;;;;;;;;;;4987242;28;19930;-67
2022/02/14 13:01:04;;;;;;;;;;;;;;;;;;4980901;28;19926;-67
2022/02/14 13:03:30;;;;;;;;;;;;;;;;;;4977881;28;19930;-67
2022/02/14 13:05:57;;;;;;;;;;;;;;;;;;4983685;28;19932;-68
2022/02/14 13:08:25;;;;;;;;;;;;;;;;;;4990731;28;19929;-69
2022/02/14 13:10:52;;;;;;;;;;;;;;;;;;4990769;28;19929;-65
2022/02/14 13:13:29;;;;;;;;;;;;;;;;;;4977675;28;20292;-68
2022/02/14 13:15:57;;;;;;;;;;;;;;;;;;4990965;28;19929;-69
2022/02/14 13:18:24;;;;;;;;;;;;;;;;;;4988823;28;20028;-70
2022/02/14 13:20:51;;;;;;;;;;;;;;;;;;4993551;28;19926;-69
2022/02/14 13:23:17;;;;;;;;;;;;;;;;;;4994646;28;19930;-68
2022/02/14 13:25:44;;;;;;;;;;;;;;;;;;4994260;28;20095;-69
2022/02/14 13:28:11;;;;;;;;;;;;;;;;;;4990221;28;19944;-69
2022/02/14 13:30:39;;;;;;;;;;;;;;;;;;4995912;28;19933;-69
2022/02/14 13:33:06;;;;;;;;;;;;;;;;;;4992441;28;19980;-69
2022/02/14 13:35:33;;;;;;;;;;;;;;;;;;4989171;28;20433;-69
2022/02/14 13:38:00;;;;;;;;;;;;;;;;;;4990925;28;19933;-69
2022/02/14 13:40:27;;;;;;;;;;;;;;;;;;5002796;28;19949;-71
2022/02/14 13:42:54;;;;;;;;;;;;;;;;;;5003759;28;19913;-71
2022/02/14 13:45:21;;;;;;;;;;;;;;;;;;5003596;28;20298;-71
2022/02/14 13:47:48;;;;;;;;;;;;;;;;;;5003660;28;19914;-69
2022/02/14 13:50:15;;;;;;;;;;;;;;;;;;5002120;28;19941;-69
2022/02/14 13:52:42;;;;;;;;;;;;;;;;;;4994561;28;19926;-70
2022/02/14 13:55:11;;;;;;;;;;;;;;;;;;4990019;28;20437;-70
2022/02/14 13:57:40;;;;;;;;;;;;;;;;;;4985558;28;20138;-72
2022/02/14 14:00:07;;;;;;;;;;;;;;;;;;4972603;28;19926;-68
2022/02/14 14:02:34;;;;;;;;;;;;;;;;;;4988781;28;19977;-69
2022/02/14 14:05:01;;;;;;;;;;;;;;;;;;4994287;28;19926;-68
2022/02/14 14:07:28;;;;;;;;;;;;;;;;;;4995186;28;19968;-70
2022/02/14 14:09:55;;;;;;;;;;;;;;;;;;4988333;28;19934;-69
2022/02/14 14:12:22;;;;;;;;;;;;;;;;;;4997139;28;19933;-69
2022/02/14 14:14:49;;;;;;;;;;;;;;;;;;4987612;28;19925;-68
2022/02/14 14:17:16;;;;;;;;;;;;;;;;;;4991160;28;19969;-68
2022/02/14 14:19:43;;;;;;;;;;;;;;;;;;4992074;28;19993;-69
2022/02/14 14:22:10;;;;;;;;;;;;;;;;;;4992026;28;19925;-68
2022/02/14 14:24:37;;;;;;;;;;;;;;;;;;4982122;28;19930;-68
2022/02/14 14:27:06;;;;;;;;;;;;;;;;;;4982610;28;19930;-69
2022/02/14 14:29:35;;;;;;;;;;;;;;;;;;4985321;28;19958;-70
2022/02/14 14:32:02;;;;;;;;;;;;;;;;;;4977842;28;19926;-70
2022/02/14 14:34:29;;;;;;;;;;;;;;;;;;4986522;28;19932;-70
2022/02/14 14:36:56;;;;;;;;;;;;;;;;;;4978750;28;19933;-69
2022/02/14 14:39:23;;;;;;;;;;;;;;;;;;4983364;28;19930;-67
2022/02/14 14:41:50;;;;;;;;;;;;;;;;;;4987719;28;19949;-69
2022/02/14 14:44:19;;;;;;;;;;;;;;;;;;4983130;28;19930;-69
2022/02/14 14:46:46;;;;;;;;;;;;;;;;;;4980681;28;19953;-68
2022/02/14 14:49:13;;;;;;;;;;;;;;;;;;4986487;28;19971;-68
2022/02/14 14:51:40;;;;;;;;;;;;;;;;;;4982281;28;20013;-67
2022/02/14 14:54:07;;;;;;;;;;;;;;;;;;4981021;28;19926;-66
2022/02/14 14:56:34;;;;;;;;;;;;;;;;;;4985622;28;19926;-67
2022/02/14 14:59:01;;;;;;;;;;;;;;;;;;4979863;28;19926;-67
2022/02/14 15:01:28;;;;;;;;;;;;;;;;;;4991178;28;19925;-67
2022/02/14 15:03:55;;;;;;;;;;;;;;;;;;4984506;28;19925;-67
2022/02/14 15:06:22;;;;;;;;;;;;;;;;;;4983941;28;19957;-69
2022/02/14 15:08:49;;;;;;;;;;;;;;;;;;4982247;28;19926;-68
2022/02/14 15:11:16;;;;;;;;;;;;;;;;;;4991806;28;20409;-68
2022/02/14 15:13:43;;;;;;;;;;;;;;;;;;4979226;28;20021;-65
2022/02/14 15:16:09;;;;;;;;;;;;;;;;;;4981037;28;19933;-66
2022/02/14 15:18:36;;;;;;;;;;;;;;;;;;4982660;28;19945;-67
2022/02/14 15:21:04;;;;;;;;;;;;;;;;;;4982723;28;19934;-66
2022/02/14 15:23:31;;;;;;;;;;;;;;;;;;4984495;28;20984;-67
2022/02/14 15:25:58;;;;;;;;;;;;;;;;;;4985487;28;19936;-67
2022/02/14 15:28:25;;;;;;;;;;;;;;;;;;4982856;28;19929;-67
2022/02/14 15:30:52;;;;;;;;;;;;;;;;;;4980670;28;19932;-67
2022/02/14 15:33:19;;;;;;;;;;;;;;;;;;4980560;28;20014;-66
2022/02/14 15:35:46;;;;;;;;;;;;;;;;;;4986063;28;19930;-65
2022/02/14 15:38:13;;;;;;;;;;;;;;;;;;4975153;28;20393;-66
2022/02/14 15:40:40;;;;;;;;;;;;;;;;;;4986025;28;19925;-66
2022/02/14 15:43:07;;;;;;;;;;;;;;;;;;4981941;28;19937;-67
2022/02/14 15:45:34;;;;;;;;;;;;;;;;;;4988292;28;19936;-66
2022/02/14 15:48:01;;;;;;;;;;;;;;;;;;4986417;28;20407;-66
2022/02/14 15:50:28;;;;;;;;;;;;;;;;;;4984822;28;20308;-65
2022/02/14 15:52:55;;;;;;;;;;;;;;;;;;4981663;28;20029;-67
2022/02/14 15:55:24;;;;;;;;;;;;;;;;;;4974968;28;20373;-67
2022/02/14 15:57:51;;;;;;;;;;;;;;;;;;4971271;28;19944;-65
2022/02/14 16:00:18;;;;;;;;;;;;;;;;;;4982872;28;20565;-66
2022/02/14 16:02:45;;;;;;;;;;;;;;;;;;4981613;28;20289;-67
2022/02/14 16:05:13;;;;;;;;;;;;;;;;;;4983201;28;20448;-66
2022/02/14 16:07:40;;;;;;;;;;;;;;;;;;4984002;28;19940;-67
2022/02/14 16:10:07;;;;;;;;;;;;;;;;;;4978515;28;19984;-67
2022/02/14 16:12:34;;;;;;;;;;;;;;;;;;4981590;28;20005;-66
2022/02/14 16:15:01;;;;;;;;;;;;;;;;;;4978402;28;20313;-66
2022/02/14 16:17:28;;;;;;;;;;;;;;;;;;4973010;28;19926;-66
2022/02/14 16:19:56;;;;;;;;;;;;;;;;;;4975874;28;20039;-64
2022/02/14 16:22:23;;;;;;;;;;;;;;;;;;4987994;28;19926;-63
2022/02/14 16:24:50;;;;;;;;;;;;;;;;;;4979289;28;19937;-64
2022/02/14 16:27:17;;;;;;;;;;;;;;;;;;4986483;28;19951;-64
2022/02/14 16:29:44;;;;;;;;;;;;;;;;;;4980299;28;19925;-64
2022/02/14 16:32:13;;;;;;;;;;;;;;;;;;4985638;28;20016;-65
2022/02/14 16:34:40;;;;;;;;;;;;;;;;;;4979487;28;19941;-65
2022/02/14 16:37:07;;;;;;;;;;;;;;;;;;4990333;28;19925;-65
2022/02/14 16:39:34;;;;;;;;;;;;;;;;;;4985968;28;19947;-65
2022/02/14 16:42:01;;;;;;;;;;;;;;;;;;4981545;28;20401;-66
2022/02/14 16:44:28;;;;;;;;;;;;;;;;;;4983727;28;19953;-67
2022/02/14 16:46:55;;;;;;;;;;;;;;;;;;4976705;28;19926;-66
2022/02/14 16:49:51;;;;;;;;;;;;;;;;;;4978366;28;19925;-66
2022/02/14 16:52:09;;;;;;;;;;;;;;;;;;4983971;28;19933;-66